Time;durP1;ratioP1;P1;durP2;ratioP2;P2;SDS_P1;SDS_P2;PMS_P1;PMS_P2;Temp;Humidity;BMP_temperature;BMP_pressure;BME280_temperature;BME280_humidity;BME280_pressure;Samples;Min_cycle;Max_cycle;Signal;HPM_P1;HPM_P2
2022/01/16 00:04:06;;;;;;;51.00;26.00;;;;;;;-0.65;78.73;101270.48;104073;1296;24259;-79
2022/01/16 00:06:38;;;;;;;44.70;22.00;;;;;;;-0.65;78.72;101275.82;104593;1296;24258;-78
2022/01/16 00:09:06;;;;;;;54.80;26.50;;;;;;;-0.73;78.48;101276.67;104729;1296;23653;-79
2022/01/16 00:11:33;;;;;;;55.60;27.40;;;;;;;-0.75;78.72;101268.80;104530;1294;24208;-80
2022/01/16 00:14:02;;;;;;;49.40;24.30;;;;;;;-0.75;78.90;101272.25;105748;1288;22570;-80
2022/01/16 00:16:29;;;;;;;51.50;25.80;;;;;;;-0.73;79.01;101267.81;105939;1287;25269;-80
2022/01/16 00:18:58;;;;;;;43.50;21.60;;;;;;;-0.75;79.20;101263.23;105516;1287;23221;-79
2022/01/16 00:21:31;;;;;;;65.20;29.30;;;;;;;-0.77;79.09;101269.36;105087;1281;24083;-77
2022/01/16 00:23:59;;;;;;;65.10;29.40;;;;;;;-0.76;79.27;101279.65;106101;1281;22656;-79
2022/01/16 00:26:26;;;;;;;60.40;28.30;;;;;;;-0.75;79.46;101268.80;106142;1281;25482;-79
2022/01/16 00:28:53;;;;;;;57.30;25.80;;;;;;;-0.68;79.42;101253.01;105805;1281;23919;-77
2022/01/16 00:31:22;;;;;;;42.30;22.50;;;;;;;-0.70;79.33;101250.70;105581;1281;22739;-80
2022/01/16 00:33:51;;;;;;;57.40;26.50;;;;;;;-0.70;79.33;101253.63;105449;1282;25279;-78
2022/01/16 00:36:20;;;;;;;44.90;21.10;;;;;;;-0.71;79.58;101259.25;105684;1281;22559;-78
2022/01/16 00:38:49;;;;;;;45.20;23.80;;;;;;;-0.81;79.37;101266.73;105537;1281;22583;-82
2022/01/16 00:41:19;;;;;;;51.30;26.60;;;;;;;-0.86;79.54;101277.18;104882;1287;24242;-82
2022/01/16 00:43:47;;;;;;;53.20;27.40;;;;;;;-0.90;79.67;101268.86;105239;1285;22609;-83
2022/01/16 00:46:15;;;;;;;38.40;19.90;;;;;;;-0.96;79.68;101279.95;105009;1287;24301;-81
2022/01/16 00:48:42;;;;;;;45.50;24.90;;;;;;;-1.06;79.70;101269.29;104933;1286;25671;-83
2022/01/16 00:51:10;;;;;;;49.90;25.30;;;;;;;-1.01;80.20;101254.45;104921;1287;23550;-81
2022/01/16 00:53:39;;;;;;;55.00;26.00;;;;;;;-0.92;80.24;101260.83;104862;1287;25684;-78
2022/01/16 00:56:06;;;;;;;45.10;23.40;;;;;;;-0.86;80.11;101271.65;104601;1290;22859;-80
2022/01/16 00:58:33;;;;;;;42.80;22.70;;;;;;;-0.83;79.92;101271.46;104431;1290;23972;-77
2022/01/16 01:01:01;;;;;;;38.30;20.00;;;;;;;-0.89;79.62;101284.30;104496;1290;25623;-79
2022/01/16 01:03:29;;;;;;;48.60;23.90;;;;;;;-0.96;79.53;101296.39;104545;1291;25396;-79
2022/01/16 01:05:56;;;;;;;48.80;24.80;;;;;;;-0.96;79.62;101298.81;104800;1287;25591;-78
2022/01/16 01:08:27;;;;;;;39.40;19.70;;;;;;;-0.93;79.88;101297.59;104738;1288;22647;-78
2022/01/16 01:10:55;;;;;;;39.60;21.90;;;;;;;-0.90;80.09;101282.55;104342;1293;26712;-82
2022/01/16 01:13:29;;;;;;;45.40;24.70;;;;;;;-0.86;80.11;101252.98;104093;1293;23019;-82
2022/01/16 01:16:02;;;;;;;43.50;22.70;;;;;;;-0.86;80.07;101243.85;105019;1288;25569;-82
2022/01/16 01:18:36;;;;;;;44.90;23.20;;;;;;;-0.95;79.80;101264.48;104963;1287;22499;-80
2022/01/16 01:21:05;;;;;;;43.90;24.70;;;;;;;-0.95;79.93;101254.96;104903;1287;22589;-80
2022/01/16 01:23:32;;;;;;;37.20;18.70;;;;;;;-0.91;80.24;101230.74;104871;1286;23861;-78
2022/01/16 01:25:59;;;;;;;31.80;17.30;;;;;;;-0.98;79.87;101243.19;104640;1288;24400;-78
2022/01/16 01:28:26;;;;;;;42.10;21.50;;;;;;;-1.04;80.08;101253.65;104884;1287;22579;-79
2022/01/16 01:30:54;;;;;;;49.30;24.80;;;;;;;-1.04;80.24;101224.09;104990;1288;22539;-76
2022/01/16 01:33:24;;;;;;;36.30;20.90;;;;;;;-0.97;80.28;101216.61;104909;1287;25341;-80
2022/01/16 01:35:51;;;;;;;35.50;19.80;;;;;;;-0.93;80.27;101233.09;105351;1281;22569;-79
2022/01/16 01:38:20;;;;;;;36.70;19.20;;;;;;;-0.96;79.81;101219.08;105504;1281;22549;-81
2022/01/16 01:40:49;;;;;;;38.60;19.90;;;;;;;-1.01;79.76;101240.45;105326;1282;25384;-79
2022/01/16 01:51:46;;;;;;;35.60;20.00;;;;;;;-0.88;79.81;101120.26;106617;1281;22656;-81
2022/01/16 01:54:14;;;;;;;24.50;13.40;;;;;;;-0.88;79.77;101103.98;105726;1287;22581;-80
2022/01/16 01:56:42;;;;;;;38.10;20.60;;;;;;;-0.89;79.59;101102.91;106653;1287;22519;-81
2022/01/16 01:59:10;;;;;;;42.10;23.40;;;;;;;-1.01;79.11;101096.41;106392;1287;22575;-83
2022/01/16 02:01:37;;;;;;;41.50;21.30;;;;;;;-1.14;79.24;101094.42;105743;1287;22554;-82
2022/01/16 02:04:05;;;;;;;41.30;23.00;;;;;;;-1.16;79.69;101124.39;105198;1286;23033;-83
2022/01/16 02:06:33;;;;;;;41.30;21.90;;;;;;;-1.12;79.89;101154.48;104778;1287;22554;-81
2022/01/16 02:09:03;;;;;;;40.70;22.20;;;;;;;-1.09;79.57;101157.73;104380;1292;25447;-84
2022/01/16 02:11:32;;;;;;;41.30;22.00;;;;;;;-1.14;79.81;101177.56;104242;1291;24118;-85
2022/01/16 02:14:27;;;;;;;41.80;23.00;;;;;;;-1.10;79.78;101176.20;104928;1287;24596;-81
2022/01/16 02:28:21;;;;;;;37.10;20.80;;;;;;;-1.17;79.12;101164.98;105520;1282;24312;-81
2022/01/16 02:34:29;;;;;;;39.20;21.30;;;;;;;-1.37;79.30;101167.05;105033;1287;22569;-79
2022/01/16 02:36:46;;;;;;;34.20;15.70;;;;;;;-1.37;79.42;101176.92;104960;1287;24246;-80
2022/01/16 02:39:10;;;;;;;41.20;20.00;;;;;;;-1.39;79.38;101182.71;105056;1288;25385;-81
2022/01/16 02:41:39;;;;;;;36.90;20.50;;;;;;;-1.45;79.18;101177.02;105636;1287;24218;-79
2022/01/16 02:44:17;;;;;;;40.00;22.70;;;;;;;-1.46;79.59;101189.38;106517;1286;22815;-80
2022/01/16 02:46:45;;;;;;;42.90;23.40;;;;;;;-1.36;79.73;101194.06;107669;1287;22561;-78
2022/01/16 02:49:24;;;;;;;33.30;20.30;;;;;;;-1.24;79.51;101185.90;107821;1287;25624;-79
2022/01/16 02:52:06;;;;;;;26.80;15.80;;;;;;;-1.27;79.02;101189.02;107936;1287;23482;-78
2022/01/16 02:54:37;;;;;;;32.40;20.30;;;;;;;-1.35;78.87;101184.61;107230;1287;22967;-77
2022/01/16 02:57:07;;;;;;;38.70;18.70;;;;;;;-1.37;79.14;101192.45;107268;1287;22597;-78
2022/01/16 02:59:35;;;;;;;38.90;21.10;;;;;;;-1.41;78.88;101193.80;107997;1281;25270;-78
2022/01/16 03:02:05;;;;;;;39.70;21.50;;;;;;;-1.41;79.01;101181.56;108293;1281;24216;-78
2022/01/16 03:04:34;;;;;;;33.90;19.10;;;;;;;-1.44;78.83;101185.19;107896;1282;22630;-78
2022/01/16 03:07:04;;;;;;;37.70;22.20;;;;;;;-1.48;78.80;101188.98;107731;1281;25369;-78
2022/01/16 03:10:01;;;;;;;42.60;21.50;;;;;;;-1.52;78.92;101185.11;106991;1281;23402;-80
2022/01/16 03:12:26;;;;;;;38.50;21.10;;;;;;;-1.53;78.80;101181.96;106750;1281;22600;-82
2022/01/16 03:14:53;;;;;;;38.30;21.30;;;;;;;-1.53;78.69;101184.03;106503;1281;22594;-84
2022/01/16 03:17:34;;;;;;;38.90;23.50;;;;;;;-1.51;78.88;101187.05;106822;1281;22724;-81
2022/01/16 03:22:50;;;;;;;42.90;24.10;;;;;;;-1.37;78.94;101184.35;105733;1285;22557;-81
2022/01/16 03:25:17;;;;;;;42.50;22.10;;;;;;;-1.30;78.94;101176.58;105540;1285;24291;-80
2022/01/16 03:27:43;;;;;;;49.90;24.30;;;;;;;-1.26;78.72;101168.83;104936;1288;22889;-81
2022/01/16 03:30:12;;;;;;;40.10;22.50;;;;;;;-1.25;78.65;101165.96;104887;1285;25788;-81
2022/01/16 03:32:39;;;;;;;43.10;24.00;;;;;;;-1.28;78.07;101158.54;104951;1285;25550;-83
2022/01/16 03:35:07;;;;;;;48.40;24.40;;;;;;;-1.38;78.19;101147.13;104307;1292;25275;-82
2022/01/16 03:37:34;;;;;;;43.00;22.80;;;;;;;-1.40;78.39;101145.13;104219;1293;24338;-81
2022/01/16 03:40:05;;;;;;;35.50;20.20;;;;;;;-1.40;78.63;101142.69;104042;1293;23206;-79
2022/01/16 03:42:35;;;;;;;44.40;23.10;;;;;;;-1.33;79.03;101143.78;104199;1293;25421;-83
2022/01/16 03:45:06;;;;;;;45.60;23.60;;;;;;;-1.23;78.85;101144.30;104464;1293;22583;-82
2022/01/16 03:47:35;;;;;;;46.20;25.10;;;;;;;-1.16;78.61;101139.09;103702;1294;24342;-82
2022/01/16 03:50:03;;;;;;;49.90;26.00;;;;;;;-1.17;77.97;101134.73;104110;1293;24328;-80
2022/01/16 03:52:31;;;;;;;35.10;19.40;;;;;;;-1.26;77.55;101133.05;104428;1291;22579;-80
2022/01/16 03:54:58;;;;;;;36.20;16.60;;;;;;;-1.40;77.64;101135.31;104987;1287;24443;-78
2022/01/16 03:57:27;;;;;;;45.30;25.70;;;;;;;-1.47;77.83;101139.58;104817;1287;22637;-77
2022/01/16 03:59:54;;;;;;;52.10;27.70;;;;;;;-1.47;78.16;101128.36;105052;1285;22554;-76
2022/01/16 04:02:21;;;;;;;53.00;26.90;;;;;;;-1.40;78.24;101128.90;104986;1286;24995;-75
2022/01/16 04:04:49;;;;;;;53.30;27.90;;;;;;;-1.34;78.09;101127.98;104807;1285;25437;-78
2022/01/16 04:07:24;;;;;;;44.80;25.00;;;;;;;-1.24;78.20;101128.84;105447;1280;24192;-75
2022/01/16 04:09:51;;;;;;;42.70;22.60;;;;;;;-1.24;77.29;101128.48;105489;1281;24303;-78
2022/01/16 04:12:21;;;;;;;47.90;25.80;;;;;;;-1.39;77.08;101122.23;105654;1281;24752;-82
2022/01/16 04:17:22;;;;;;;41.50;22.80;;;;;;;-1.68;76.69;101129.38;105568;1287;22703;-79
2022/01/16 04:19:51;;;;;;;44.60;22.60;;;;;;;-1.78;77.17;101125.41;104783;1291;22585;-83
2022/01/16 04:22:20;;;;;;;39.90;21.90;;;;;;;-1.76;77.41;101117.02;104832;1290;22700;-83
2022/01/16 04:24:48;;;;;;;50.40;26.40;;;;;;;-1.76;77.28;101100.96;103917;1296;24338;-80
2022/01/16 04:27:16;;;;;;;45.60;24.80;;;;;;;-1.75;77.37;101099.48;103958;1296;25392;-78
2022/01/16 04:29:43;;;;;;;47.00;24.50;;;;;;;-1.79;77.23;101099.95;103761;1296;22573;-78
2022/01/16 04:32:11;;;;;;;48.20;26.50;;;;;;;-1.82;77.22;101108.23;103946;1296;22667;-78
2022/01/16 04:34:38;;;;;;;47.30;25.80;;;;;;;-1.77;77.40;101102.45;103905;1296;22735;-81
2022/01/16 04:37:06;;;;;;;55.50;28.50;;;;;;;-1.68;77.58;101090.30;104140;1296;24010;-80
2022/01/16 04:39:35;;;;;;;56.30;27.90;;;;;;;-1.60;77.23;101091.92;104862;1287;25685;-79
2022/01/16 04:44:49;;;;;;;42.40;22.40;;;;;;;-1.82;76.56;101101.50;105418;1281;22550;-81
2022/01/16 04:47:17;;;;;;;45.80;26.70;;;;;;;-1.87;76.90;101098.84;105305;1282;25380;-79
2022/01/16 04:49:44;;;;;;;48.00;25.90;;;;;;;-1.83;76.77;101083.01;105460;1282;25282;-79
2022/01/16 04:52:11;;;;;;;34.90;19.10;;;;;;;-1.79;76.78;101083.05;105246;1282;22666;-78
2022/01/16 04:54:38;;;;;;;46.00;24.60;;;;;;;-1.74;76.74;101085.68;105584;1281;24075;-78
2022/01/16 04:57:05;;;;;;;40.60;22.50;;;;;;;-1.66;77.11;101080.39;105299;1281;22585;-79
2022/01/16 04:59:32;;;;;;;57.00;30.70;;;;;;;-1.63;76.69;101075.88;105531;1281;25278;-76
2022/01/16 05:01:59;;;;;;;50.50;28.40;;;;;;;-1.61;76.80;101077.70;105274;1282;24238;-76
2022/01/16 05:04:26;;;;;;;53.50;30.50;;;;;;;-1.52;77.02;101079.04;105492;1281;22729;-78
2022/01/16 05:06:53;;;;;;;51.20;26.10;;;;;;;-1.38;76.88;101084.06;105450;1281;22549;-77
2022/01/16 05:09:20;;;;;;;55.40;28.80;;;;;;;-1.37;76.34;101076.15;105579;1281;24446;-79
2022/01/16 05:11:53;;;;;;;50.70;28.20;;;;;;;-1.39;76.11;101067.27;105566;1281;24414;-80
2022/01/16 05:17:06;;;;;;;50.10;28.90;;;;;;;-1.46;75.68;101057.56;104818;1287;25345;-80
2022/01/16 05:19:33;;;;;;;43.90;24.00;;;;;;;-1.52;75.72;101048.64;104213;1293;25585;-84
2022/01/16 05:22:00;;;;;;;57.90;29.50;;;;;;;-1.56;75.82;101046.01;104491;1293;24287;-83
2022/01/16 05:24:32;;;;;;;53.80;27.10;;;;;;;-1.51;76.06;101050.09;104955;1291;22780;-80
2022/01/16 05:26:59;;;;;;;55.80;32.00;;;;;;;-1.42;76.07;101052.59;104411;1291;25914;-80
2022/01/16 05:29:26;;;;;;;44.80;26.30;;;;;;;-1.39;75.89;101046.33;104919;1290;22518;-83
2022/01/16 05:31:53;;;;;;;55.00;28.40;;;;;;;-1.38;75.65;101045.39;104907;1293;24131;-81
2022/01/16 05:34:21;;;;;;;58.00;30.10;;;;;;;-1.35;75.73;101038.73;104594;1291;22606;-80
2022/01/16 05:36:49;;;;;;;57.90;29.30;;;;;;;-1.36;75.40;101039.42;104932;1288;22869;-78
2022/01/16 05:39:16;;;;;;;54.80;28.60;;;;;;;-1.48;75.03;101023.80;104975;1287;26592;-81
2022/01/16 05:41:43;;;;;;;51.20;25.60;;;;;;;-1.55;74.99;101018.75;104842;1287;22740;-81
2022/01/16 05:44:10;;;;;;;51.30;27.50;;;;;;;-1.67;74.95;101013.01;105154;1282;24657;-82
2022/01/16 05:46:37;;;;;;;54.30;28.80;;;;;;;-1.75;75.24;101013.80;106088;1281;24255;-85
2022/01/16 05:49:05;;;;;;;50.90;29.20;;;;;;;-1.76;75.44;101012.89;105761;1282;25269;-81
2022/01/16 05:51:32;;;;;;;38.70;20.00;;;;;;;-1.77;75.50;101011.83;106830;1281;22618;-80
2022/01/16 05:53:58;;;;;;;52.60;28.80;;;;;;;-1.78;75.39;101015.05;107240;1281;22555;-79
2022/01/16 05:56:26;;;;;;;48.20;23.70;;;;;;;-1.79;75.31;101006.19;107580;1281;24233;-81
2022/01/16 05:58:53;;;;;;;57.60;29.20;;;;;;;-1.94;74.76;101006.27;107962;1281;22833;-79
2022/01/16 06:01:19;;;;;;;54.40;29.70;;;;;;;-2.05;75.06;101001.56;108298;1281;22486;-79
2022/01/16 06:03:46;;;;;;;51.00;28.60;;;;;;;-2.06;75.32;101003.08;108578;1280;22850;-81
2022/01/16 06:06:13;;;;;;;47.30;26.90;;;;;;;-2.09;75.41;101001.70;108777;1281;23011;-78
2022/01/16 06:08:41;;;;;;;60.80;29.40;;;;;;;-2.09;75.50;100990.48;108731;1281;22705;-81
2022/01/16 06:11:08;;;;;;;50.70;28.10;;;;;;;-2.06;75.73;100995.30;108354;1281;25415;-80
2022/01/16 06:13:35;;;;;;;59.20;30.90;;;;;;;-1.98;75.85;100990.02;106196;1281;22655;-81
2022/01/16 06:16:03;;;;;;;53.60;30.00;;;;;;;-1.95;75.63;100979.98;105560;1281;22543;-81
2022/01/16 06:18:31;;;;;;;52.30;27.70;;;;;;;-1.96;75.64;100978.53;105898;1280;25428;-77
2022/01/16 06:20:58;;;;;;;53.70;29.30;;;;;;;-1.95;75.40;100980.67;105738;1281;22577;-80
2022/01/16 06:23:25;;;;;;;59.90;31.10;;;;;;;-1.99;75.54;100975.12;105701;1281;24306;-78
2022/01/16 06:25:54;;;;;;;57.30;29.10;;;;;;;-1.98;75.62;100968.43;105602;1281;24439;-79
2022/01/16 06:28:23;;;;;;;65.50;33.40;;;;;;;-2.01;75.50;100961.41;105788;1281;24151;-81
2022/01/16 06:30:51;;;;;;;60.70;33.50;;;;;;;-2.03;75.66;100955.96;105791;1281;24014;-80
2022/01/16 06:33:18;;;;;;;60.30;29.80;;;;;;;-2.02;75.80;100959.77;105568;1281;22570;-78
2022/01/16 06:35:45;;;;;;;64.90;34.40;;;;;;;-2.04;75.54;100958.17;105079;1285;24008;-79
2022/01/16 06:38:12;;;;;;;56.10;28.10;;;;;;;-2.10;75.41;100945.73;104534;1290;25401;-80
2022/01/16 06:40:39;;;;;;;53.40;26.70;;;;;;;-2.15;75.71;100944.64;104437;1292;22585;-81
2022/01/16 06:43:06;;;;;;;55.10;28.10;;;;;;;-2.16;75.97;100950.61;103975;1296;22722;-79
2022/01/16 06:45:33;;;;;;;56.40;29.60;;;;;;;-2.14;75.92;100949.32;103648;1299;22761;-79
2022/01/16 06:48:00;;;;;;;55.60;29.00;;;;;;;-2.15;75.92;100958.61;103761;1299;25405;-78
2022/01/16 06:50:27;;;;;;;49.90;27.90;;;;;;;-2.18;75.67;100957.40;103756;1299;25424;-80
2022/01/16 06:52:54;;;;;;;48.70;26.90;;;;;;;-2.15;76.15;100957.22;103623;1299;22745;-78
2022/01/16 06:55:21;;;;;;;43.50;23.80;;;;;;;-2.06;76.10;100958.36;103879;1299;25277;-79
2022/01/16 06:57:48;;;;;;;42.90;24.10;;;;;;;-2.04;75.74;100961.77;104215;1297;24360;-80
2022/01/16 07:00:15;;;;;;;53.20;29.80;;;;;;;-2.06;75.63;100964.09;104534;1300;22614;-83
2022/01/16 07:02:42;;;;;;;56.90;31.90;;;;;;;-2.12;75.38;100962.41;105095;1294;22567;-83
2022/01/16 07:05:10;;;;;;;35.20;17.70;;;;;;;-2.09;75.54;100967.55;105868;1290;26514;-82
2022/01/16 07:07:37;;;;;;;51.50;29.40;;;;;;;-2.16;75.34;100964.79;106471;1288;24083;-83
2022/01/16 07:10:05;;;;;;;43.60;24.60;;;;;;;-2.20;75.45;100962.65;106549;1290;22580;-82
2022/01/16 07:12:32;;;;;;;42.20;21.20;;;;;;;-2.17;75.72;100970.95;106230;1288;25392;-82
2022/01/16 07:15:00;;;;;;;47.30;25.70;;;;;;;-2.13;75.41;100974.94;106567;1287;24137;-82
2022/01/16 07:17:27;;;;;;;44.80;25.90;;;;;;;-2.12;75.65;100972.24;107680;1281;26518;-81
2022/01/16 07:19:54;;;;;;;42.40;22.70;;;;;;;-2.01;75.84;100970.73;106538;1285;22939;-83
2022/01/16 07:22:21;;;;;;;32.20;16.90;;;;;;;-1.90;75.56;100974.02;105904;1286;23388;-81
2022/01/16 07:24:50;;;;;;;42.30;22.10;;;;;;;-1.90;75.48;100972.33;105707;1285;22771;-80
2022/01/16 07:27:19;;;;;;;34.30;18.90;;;;;;;-1.91;75.47;100971.40;105236;1288;22625;-82
2022/01/16 07:29:47;;;;;;;45.20;24.00;;;;;;;-1.91;75.40;100962.06;104373;1291;22796;-83
2022/01/16 07:32:15;;;;;;;37.80;21.60;;;;;;;-1.84;75.73;100958.77;104525;1291;24047;-84
2022/01/16 07:34:42;;;;;;;39.70;22.80;;;;;;;-1.77;75.51;100957.07;103826;1298;22801;-81
2022/01/16 07:37:09;;;;;;;40.90;23.70;;;;;;;-1.66;75.76;100956.40;103691;1299;25542;-80
2022/01/16 07:39:37;;;;;;;40.40;23.50;;;;;;;-1.56;75.69;100962.24;104432;1293;22569;-82
2022/01/16 07:42:05;;;;;;;40.10;22.60;;;;;;;-1.57;75.11;100959.60;104637;1294;22634;-82
2022/01/16 07:44:32;;;;;;;42.00;22.20;;;;;;;-1.51;75.45;100959.87;105016;1294;22895;-81
2022/01/16 07:46:59;;;;;;;41.80;22.60;;;;;;;-1.45;75.24;100958.63;105061;1296;22957;-80
2022/01/16 07:49:27;;;;;;;41.50;22.00;;;;;;;-1.40;75.03;100957.50;105874;1291;22678;-82
2022/01/16 07:51:55;;;;;;;33.20;18.60;;;;;;;-1.39;75.02;100957.37;106464;1290;25267;-82
2022/01/16 07:54:23;;;;;;;39.90;19.70;;;;;;;-1.39;75.06;100953.19;106821;1285;23119;-82
2022/01/16 07:56:50;;;;;;;41.40;21.60;;;;;;;-1.34;74.99;100954.34;106772;1284;22677;-81
2022/01/16 07:59:17;;;;;;;24.90;13.20;;;;;;;-1.36;74.93;100949.55;105925;1290;24906;-84
2022/01/16 08:01:45;;;;;;;41.70;21.10;;;;;;;-1.38;74.98;100948.95;106450;1288;22587;-84
2022/01/16 08:04:12;;;;;;;43.90;22.20;;;;;;;-1.32;75.02;100949.54;106316;1288;24107;-82
2022/01/16 08:06:39;;;;;;;45.30;22.20;;;;;;;-1.23;75.15;100948.07;106692;1287;25524;-83
2022/01/16 08:09:06;;;;;;;35.90;17.20;;;;;;;-1.10;75.19;100942.12;107225;1285;22706;-78
2022/01/16 08:11:36;;;;;;;36.10;20.00;;;;;;;-1.07;74.89;100939.70;107108;1284;22592;-81
2022/01/16 08:14:03;;;;;;;30.40;16.90;;;;;;;-0.99;75.07;100936.05;106526;1287;24356;-82
2022/01/16 08:16:30;;;;;;;33.80;18.50;;;;;;;-0.95;75.00;100936.08;105929;1290;24357;-82
2022/01/16 08:18:58;;;;;;;33.00;19.20;;;;;;;-0.84;75.05;100929.67;106255;1287;22850;-80
2022/01/16 08:21:25;;;;;;;35.60;19.30;;;;;;;-0.73;74.88;100931.02;106465;1284;22999;-82
2022/01/16 08:23:54;;;;;;;26.90;16.20;;;;;;;-0.62;74.83;100934.82;106346;1286;22629;-80
2022/01/16 08:26:23;;;;;;;31.80;18.50;;;;;;;-0.59;74.27;100927.31;106473;1284;23117;-80
2022/01/16 08:28:50;;;;;;;36.80;20.00;;;;;;;-0.58;74.26;100925.85;107107;1284;22581;-86
2022/01/16 08:31:17;;;;;;;34.40;19.70;;;;;;;-0.49;74.21;100924.13;106900;1284;195694;-87
2022/01/16 08:33:44;;;;;;;38.20;19.90;;;;;;;-0.51;73.88;100915.23;108123;1281;22622;-85
2022/01/16 08:36:11;;;;;;;31.90;18.40;;;;;;;-0.47;73.88;100904.52;107838;1284;22764;-82
2022/01/16 08:38:38;;;;;;;37.40;18.40;;;;;;;-0.40;74.03;100899.42;107354;1284;24430;-82
2022/01/16 08:41:06;;;;;;;25.50;14.70;;;;;;;-0.30;74.16;100904.39;107314;1285;22582;-89
2022/01/16 08:43:33;;;;;;;28.70;17.00;;;;;;;-0.27;73.94;100903.31;107028;1284;22597;-78
2022/01/16 08:46:00;;;;;;;31.10;18.40;;;;;;;-0.23;73.78;100893.73;106654;1284;25477;-80
2022/01/16 08:48:28;;;;;;;32.50;18.00;;;;;;;-0.14;73.79;100895.36;106742;1284;22607;-79
2022/01/16 08:50:56;;;;;;;33.90;17.60;;;;;;;-0.09;73.65;100896.98;105893;1285;22736;-80
2022/01/16 08:53:24;;;;;;;36.80;19.50;;;;;;;-0.14;73.24;100892.74;105748;1284;24011;-81
2022/01/16 08:55:51;;;;;;;36.30;17.60;;;;;;;-0.17;73.30;100883.83;105422;1284;24097;-81
2022/01/16 08:58:18;;;;;;;36.50;18.20;;;;;;;-0.15;73.34;100878.87;105814;1286;22593;-81
2022/01/16 09:00:47;;;;;;;30.40;17.90;;;;;;;-0.17;73.18;100870.84;106403;1281;25382;-84
2022/01/16 09:03:22;;;;;;;35.50;18.00;;;;;;;-0.15;73.45;100867.98;107018;1281;22849;-83
2022/01/16 09:05:51;;;;;;;33.50;17.30;;;;;;;-0.07;73.52;100867.26;108004;1279;22534;-83
2022/01/16 09:08:19;;;;;;;33.70;18.10;;;;;;;0.02;73.41;100870.04;108494;1281;22687;-84
2022/01/16 09:10:46;;;;;;;24.90;15.30;;;;;;;0.06;73.27;100862.95;108937;1281;22603;-82
2022/01/16 09:13:17;;;;;;;29.80;14.60;;;;;;;0.04;72.99;100851.08;109154;1279;22817;-82
2022/01/16 09:15:47;;;;;;;31.70;16.80;;;;;;;-0.10;72.51;100853.09;109018;1279;22580;-83
2022/01/16 09:18:16;;;;;;;31.90;18.20;;;;;;;-0.21;72.90;100853.86;109084;1279;22561;-83
2022/01/16 09:20:44;;;;;;;27.50;15.20;;;;;;;-0.16;73.32;100854.60;108474;1281;22514;-82
2022/01/16 09:23:12;;;;;;;24.80;12.50;;;;;;;-0.12;73.02;100852.85;106628;1281;26579;-85
2022/01/16 09:25:39;;;;;;;29.00;16.20;;;;;;;-0.13;72.92;100849.19;106220;1279;22547;-84
2022/01/16 09:28:07;;;;;;;33.00;16.00;;;;;;;-0.08;73.38;100843.98;106077;1281;23244;-83
2022/01/16 09:30:34;;;;;;;32.90;16.90;;;;;;;-0.05;72.94;100829.74;105999;1281;23262;-83
2022/01/16 09:33:02;;;;;;;28.90;15.50;;;;;;;-0.16;72.66;100824.98;106466;1281;22573;-83
2022/01/16 09:35:33;;;;;;;32.50;17.10;;;;;;;-0.26;72.82;100819.91;106345;1281;26561;-83
2022/01/16 09:38:02;;;;;;;30.50;16.00;;;;;;;-0.27;73.03;100814.31;106394;1281;23183;-86
2022/01/16 09:40:30;;;;;;;27.90;15.50;;;;;;;-0.28;73.36;100811.33;106200;1281;25270;-84
2022/01/16 09:42:58;;;;;;;34.60;16.60;;;;;;;-0.18;73.63;100810.52;106060;1282;22882;-84
2022/01/16 09:45:26;;;;;;;30.50;16.20;;;;;;;-0.07;73.56;100804.76;106633;1279;22550;-84
2022/01/16 09:47:53;;;;;;;29.20;14.30;;;;;;;-0.03;73.24;100805.44;106314;1281;22550;-83
2022/01/16 09:50:24;;;;;;;35.10;17.50;;;;;;;-0.05;73.08;100804.48;105954;1285;24319;-85
2022/01/16 09:52:52;;;;;;;30.00;15.70;;;;;;;-0.12;72.74;100804.72;105815;1284;22744;-85
2022/01/16 09:55:21;;;;;;;32.40;17.00;;;;;;;-0.21;72.86;100799.86;105388;1290;22743;-87
2022/01/16 09:57:50;;;;;;;35.80;18.20;;;;;;;-0.21;73.36;100789.46;105171;1290;24059;-86
2022/01/16 10:00:20;;;;;;;28.80;15.00;;;;;;;-0.10;73.67;100788.17;104926;1291;22613;-85
2022/01/16 10:02:48;;;;;;;36.20;17.10;;;;;;;-0.02;73.48;100781.73;105222;1290;23811;-86
2022/01/16 10:05:27;;;;;;;29.90;17.10;;;;;;;0.06;73.52;100778.43;106003;1290;22937;-86
2022/01/16 10:07:55;;;;;;;34.50;16.70;;;;;;;0.11;73.22;100772.56;106069;1288;22669;-85
2022/01/16 10:10:34;;;;;;;38.20;19.10;;;;;;;0.10;72.98;100769.39;106273;1287;25372;-86
2022/01/16 10:13:22;;;;;;;33.80;18.10;;;;;;;0.16;73.16;100751.79;104733;1288;28056;-86
2022/01/16 10:15:57;;;;;;;18.30;11.10;;;;;;;0.24;73.21;100744.32;105353;1285;22601;-84
2022/01/16 10:18:54;;;;;;;30.70;15.30;;;;;;;0.20;72.70;100726.48;105655;1284;22590;-84
2022/01/16 10:21:33;;;;;;;35.70;16.70;;;;;;;0.10;72.77;100719.86;105360;1284;25584;-82
2022/01/16 10:24:16;;;;;;;37.00;19.30;;;;;;;0.14;73.43;100719.48;105164;1285;23943;-84
2022/01/16 10:26:44;;;;;;;27.50;15.20;;;;;;;0.19;73.25;100713.45;105417;1284;22579;-83
2022/01/16 10:29:20;;;;;;;32.30;16.70;;;;;;;0.18;73.02;100716.03;105231;1287;22593;-83
2022/01/16 10:31:49;;;;;;;40.10;19.30;;;;;;;0.16;73.05;100719.41;105581;1281;24270;-85
2022/01/16 10:34:31;;;;;;;35.30;17.60;;;;;;;0.20;73.23;100719.05;105901;1281;22594;-84
2022/01/16 10:36:59;;;;;;;25.90;15.70;;;;;;;0.27;73.25;100721.92;105808;1279;22699;-83
2022/01/16 10:39:27;;;;;;;32.80;16.40;;;;;;;0.30;73.05;100721.66;105209;1284;22602;-83
2022/01/16 10:42:15;;;;;;;29.20;13.90;;;;;;;0.31;73.17;100719.79;105809;1281;22853;-82
2022/01/16 10:44:43;;;;;;;35.50;18.50;;;;;;;0.31;72.93;100719.27;105066;1290;23845;-83
2022/01/16 10:47:51;;;;;;;33.60;17.90;;;;;;;0.35;73.32;100715.61;104978;1291;22785;-84
2022/01/16 10:50:19;;;;;;;;;;;;;;;0.40;73.21;100705.41;104959;1290;22869;-81
2022/01/16 10:52:46;;;;;;;36.30;18.60;;;;;;;0.46;73.28;100703.38;105310;1290;25697;-85
2022/01/16 10:55:14;;;;;;;35.30;17.20;;;;;;;0.44;72.85;100700.04;105268;1287;22637;-85
2022/01/16 10:57:41;;;;;;;36.10;17.50;;;;;;;0.37;72.86;100687.77;105282;1287;24233;-85
2022/01/16 11:00:13;;;;;;;30.20;17.30;;;;;;;0.42;72.99;100687.98;105454;1284;22544;-86
2022/01/16 11:02:45;;;;;;;32.70;17.00;;;;;;;0.46;73.12;100690.37;106185;1279;23256;-84
2022/01/16 11:05:16;;;;;;;37.50;20.50;;;;;;;0.53;73.24;100681.63;106418;1281;24246;-83
2022/01/16 11:07:44;;;;;;;36.60;18.00;;;;;;;0.52;72.93;100678.13;107029;1281;22514;-86
2022/01/16 11:10:26;;;;;;;34.70;17.10;;;;;;;0.47;73.07;100679.52;106667;1284;22576;-86
2022/01/16 11:12:56;;;;;;;34.50;18.90;;;;;;;0.52;73.35;100676.55;107666;1281;23819;-86
2022/01/16 11:15:25;;;;;;;38.80;19.30;;;;;;;0.57;73.22;100671.00;107042;1281;22511;-85
2022/01/16 11:17:53;;;;;;;35.20;19.30;;;;;;;0.59;73.11;100663.10;108136;1279;22581;-84
2022/01/16 11:20:32;;;;;;;36.10;18.30;;;;;;;0.63;73.01;100659.45;107933;1279;24278;-86
2022/01/16 11:23:04;;;;;;;38.50;19.70;;;;;;;0.74;73.17;100653.06;107122;1279;23042;-85
2022/01/16 11:25:36;;;;;;;35.80;19.10;;;;;;;0.79;72.87;100654.44;107115;1279;22556;-84
2022/01/16 11:28:23;;;;;;;31.10;18.10;;;;;;;0.78;72.82;100646.08;106763;1279;22589;-85
2022/01/16 11:30:51;;;;;;;;;;;;;;;0.72;72.68;100635.85;106256;1279;25954;-86
2022/01/16 11:33:24;;;;;;;33.70;18.30;;;;;;;0.69;73.08;100631.77;106283;1279;22872;-85
2022/01/16 11:36:03;;;;;;;29.40;15.70;;;;;;;0.71;73.01;100630.10;105449;1285;24270;-79
2022/01/16 11:38:53;;;;;;;36.00;18.80;;;;;;;0.71;72.95;100628.86;105654;1284;22588;-86
2022/01/16 11:41:33;;;;;;;42.60;19.70;;;;;;;0.69;72.86;100626.53;105765;1284;24223;-88
2022/01/16 11:44:20;;;;;;;35.70;18.70;;;;;;;0.65;72.99;100623.98;105466;1287;22568;-90
2022/01/16 11:46:55;;;;;;;38.60;18.70;;;;;;;0.69;73.40;100614.76;106835;1288;22849;-83
2022/01/16 11:49:39;;;;;;;27.00;14.20;;;;;;;0.78;73.10;100616.26;106210;1288;22675;-85
2022/01/16 11:52:18;;;;;;;33.20;18.30;;;;;;;0.67;72.83;100613.63;105013;1290;22665;-86